Snoqualmie River: North Fork station

back to: Snoqualmie river
North Fork station Summary - (NOAA Hydrograph: SNQW1)
Latest reading:
Wed01/27 02:15 pm 2.77 ft 229 cfs (steady)
Past 24hr max:
Tue01/26 03:15 pm 2.84 ft 247 cfs
Forecasted crests: (published Wed 01/27/21 07:37 am)
Mon02/01 10:00 pm 3.54 ft 478 cfs

North Fork station Details

Latest Readings

Last 100 Readings:
Wed01/27 02:15 pm 2.77 ft 229 cfs
Wed01/27 02:00 pm 2.77 ft 229 cfs
Wed01/27 01:45 pm 2.77 ft 229 cfs
Wed01/27 01:30 pm 2.77 ft 229 cfs
Wed01/27 01:15 pm 2.77 ft 229 cfs
Wed01/27 01:00 pm 2.78 ft 232 cfs
Wed01/27 12:45 pm 2.77 ft 229 cfs
Wed01/27 12:30 pm 2.78 ft 232 cfs
Wed01/27 12:15 pm 2.77 ft 229 cfs
Wed01/27 12:00 pm 2.78 ft 232 cfs
Wed01/27 11:45 am 2.78 ft 232 cfs
Wed01/27 11:30 am 2.78 ft 232 cfs
Wed01/27 11:15 am 2.77 ft 229 cfs
Wed01/27 11:00 am 2.77 ft 229 cfs
Wed01/27 10:45 am 2.78 ft 232 cfs
Wed01/27 10:30 am 2.78 ft 232 cfs
Wed01/27 10:15 am 2.78 ft 232 cfs
Wed01/27 10:00 am 2.78 ft 232 cfs
Wed01/27 09:45 am 2.78 ft 232 cfs
Wed01/27 09:30 am 2.78 ft 232 cfs
Wed01/27 09:15 am 2.78 ft 232 cfs
Wed01/27 09:00 am 2.78 ft 232 cfs
Wed01/27 08:45 am 2.78 ft 232 cfs
Wed01/27 08:30 am 2.78 ft 232 cfs
Wed01/27 08:15 am 2.79 ft 234 cfs
Wed01/27 08:00 am 2.79 ft 234 cfs
Wed01/27 07:45 am 2.78 ft 232 cfs
Wed01/27 07:30 am 2.79 ft 234 cfs
Wed01/27 07:15 am 2.79 ft 234 cfs
Wed01/27 07:00 am 2.79 ft 234 cfs
Wed01/27 06:45 am 2.79 ft 234 cfs
Wed01/27 06:30 am 2.79 ft 234 cfs
Wed01/27 06:15 am 2.79 ft 234 cfs
Wed01/27 06:00 am 2.78 ft 232 cfs
Wed01/27 05:45 am 2.79 ft 234 cfs
Wed01/27 05:30 am 2.79 ft 234 cfs
Wed01/27 05:15 am 2.79 ft 234 cfs
Wed01/27 05:00 am 2.79 ft 234 cfs
Wed01/27 04:45 am 2.8 ft 237 cfs
Wed01/27 04:30 am 2.8 ft 237 cfs
Wed01/27 04:15 am 2.79 ft 234 cfs
Wed01/27 04:00 am 2.8 ft 237 cfs
Wed01/27 03:45 am 2.8 ft 237 cfs
Wed01/27 03:30 am 2.8 ft 237 cfs
Wed01/27 03:15 am 2.8 ft 237 cfs
Wed01/27 03:00 am 2.8 ft 237 cfs
Wed01/27 02:45 am 2.8 ft 237 cfs
Wed01/27 02:30 am 2.81 ft 239 cfs
Wed01/27 02:15 am 2.8 ft 237 cfs
Wed01/27 02:00 am 2.8 ft 237 cfs
Wed01/27 01:45 am 2.81 ft 239 cfs
Wed01/27 01:30 am 2.8 ft 237 cfs
Wed01/27 01:15 am 2.8 ft 237 cfs
Wed01/27 01:00 am 2.8 ft 237 cfs
Wed01/27 12:45 am 2.8 ft 237 cfs
Wed01/27 12:30 am 2.8 ft 237 cfs
Wed01/27 12:15 am 2.81 ft 239 cfs
Wed01/27 12:00 am 2.81 ft 239 cfs
Tue01/26 11:45 pm 2.81 ft 239 cfs
Tue01/26 11:30 pm 2.81 ft 239 cfs
Tue01/26 11:15 pm 2.81 ft 239 cfs
Tue01/26 11:00 pm 2.81 ft 239 cfs
Tue01/26 10:45 pm 2.81 ft 239 cfs
Tue01/26 10:30 pm 2.81 ft 239 cfs
Tue01/26 10:15 pm 2.81 ft 239 cfs
Tue01/26 10:00 pm 2.81 ft 239 cfs
Tue01/26 09:45 pm 2.81 ft 239 cfs
Tue01/26 09:30 pm 2.81 ft 239 cfs
Tue01/26 09:15 pm 2.82 ft 242 cfs
Tue01/26 09:00 pm 2.8 ft 237 cfs
Tue01/26 08:45 pm 2.81 ft 239 cfs
Tue01/26 08:30 pm 2.81 ft 239 cfs
Tue01/26 08:15 pm 2.81 ft 239 cfs
Tue01/26 08:00 pm 2.81 ft 239 cfs
Tue01/26 07:45 pm 2.82 ft 242 cfs
Tue01/26 07:30 pm 2.82 ft 242 cfs
Tue01/26 07:15 pm 2.82 ft 242 cfs
Tue01/26 07:00 pm 2.82 ft 242 cfs
Tue01/26 06:45 pm 2.81 ft 239 cfs
Tue01/26 06:30 pm 2.82 ft 242 cfs
Tue01/26 06:15 pm 2.82 ft 242 cfs
Tue01/26 06:00 pm 2.82 ft 242 cfs
Tue01/26 05:45 pm 2.83 ft 245 cfs
Tue01/26 05:30 pm 2.83 ft 245 cfs
Tue01/26 05:15 pm 2.83 ft 245 cfs
Tue01/26 05:00 pm 2.82 ft 242 cfs
Tue01/26 04:45 pm 2.83 ft 245 cfs
Tue01/26 04:30 pm 2.83 ft 245 cfs
Tue01/26 04:15 pm 2.82 ft 242 cfs
Tue01/26 04:00 pm 2.82 ft 242 cfs
Tue01/26 03:45 pm 2.82 ft 242 cfs
Tue01/26 03:30 pm 2.83 ft 245 cfs
Tue01/26 03:15 pm 2.84 ft 247 cfs
Tue01/26 03:00 pm 2.83 ft 245 cfs
Tue01/26 02:45 pm 2.83 ft 245 cfs
Tue01/26 02:30 pm 2.83 ft 245 cfs
Tue01/26 02:15 pm 2.83 ft 245 cfs
Tue01/26 02:00 pm 2.84 ft 247 cfs
Tue01/26 01:45 pm 2.83 ft 245 cfs
Tue01/26 01:30 pm 2.83 ft 245 cfs

Latest Forecasts

Currently Forecasted Readings:
Wed01/27 10:00 am 2.78 ft 231 cfs
Wed01/27 04:00 pm 2.75 ft 224 cfs
Wed01/27 10:00 pm 2.73 ft 218 cfs
Thu01/28 04:00 am 2.7 ft 212 cfs
Thu01/28 10:00 am 2.68 ft 206 cfs
Thu01/28 04:00 pm 2.65 ft 201 cfs
Thu01/28 10:00 pm 2.63 ft 195 cfs
Fri01/29 04:00 am 2.6 ft 189 cfs
Fri01/29 10:00 am 2.58 ft 184 cfs
Fri01/29 04:00 pm 2.56 ft 178 cfs
Fri01/29 10:00 pm 2.53 ft 173 cfs
Sat01/30 04:00 am 2.5 ft 167 cfs
Sat01/30 10:00 am 2.48 ft 162 cfs
Sat01/30 04:00 pm 2.49 ft 164 cfs
Sat01/30 10:00 pm 2.53 ft 174 cfs
Sun01/31 04:00 am 2.61 ft 190 cfs
Sun01/31 10:00 am 2.68 ft 207 cfs
Sun01/31 04:00 pm 2.89 ft 260 cfs
Sun01/31 10:00 pm 3.12 ft 329 cfs
Mon02/01 04:00 am 3.29 ft 386 cfs
Mon02/01 10:00 am 3.37 ft 414 cfs
Mon02/01 04:00 pm 3.48 ft 457 cfs
Mon02/01 10:00 pm 3.54 ft 478 cfs
Tue02/02 04:00 am 3.48 ft 457 cfs
Tue02/02 10:00 am 3.39 ft 423 cfs
Tue02/02 04:00 pm 3.25 ft 370 cfs
Tue02/02 10:00 pm 3.17 ft 346 cfs
Wed02/03 04:00 am 3.11 ft 327 cfs
Wed02/03 10:00 am 3.05 ft 307 cfs
Wed02/03 04:00 pm 2.98 ft 287 cfs
Wed02/03 10:00 pm 2.92 ft 270 cfs
Thu02/04 04:00 am 2.87 ft 256 cfs
Thu02/04 10:00 am 2.83 ft 245 cfs
Thu02/04 04:00 pm 2.79 ft 235 cfs
Thu02/04 10:00 pm 2.76 ft 227 cfs
Fri02/05 04:00 am 2.74 ft 221 cfs
Fri02/05 10:00 am 2.72 ft 216 cfs
Fri02/05 04:00 pm 2.69 ft 209 cfs
Fri02/05 10:00 pm 2.67 ft 204 cfs
Sat02/06 04:00 am 2.66 ft 202 cfs

Snoqualmie River flood gauge data supplied by the
National Weather Service Northwest River Forecast Center.

Sign up for Floodzilla alerts.